Maersk Palermo — PDHW — position and weather

sailwx.info

Track history (hours):
 
Tides and Currents Weather Stations Pressure Air Temp Water Temp Dewpoint Dewpoint Depression Visibility Wind Speed Wind Dir Waves Ship Positions

Maersk Palermo

Last reported at 2018-May-24 07:00 UTC. Time now 2018-May-24 08:13 UTC.
Position N 45°36' W 050°48'.

Length 210 m; beam 32 m.

Type: Ship (hazmat cat B). MMSI: 244118000.

Barometer 996.6 mb

Date/timePositionNaut miles runAvg speedWind from/ knotsBaromVisibWave heightAir tempDewpointWater temp
2018-May-24 07:00N 45°36' W 050°48'1414.0 996.6
2018-May-24 06:00N 45°30' W 050°30'1312.6 997.9
2018-May-24 05:00N 45°30' W 050°12'1414.0 1002.2
2018-May-24 04:00N 45°24' W 049°54'1312.6 1006.7
2018-May-24 03:00N 45°24' W 049°36'1414.0 1008.5
2018-May-24 02:00N 45°18' W 049°18'1312.7 1012.8
2018-May-24 01:00N 45°18' W 049°00'1312.7 1014.9
2018-May-24 00:00N 45°18' W 048°42'1817.9 1016.8
2018-May-23 23:00N 45°12' W 048°18'2121.1 1018.4
2018-May-23 22:00N 45°12' W 047°48'1818.0 1020.1
2018-May-23 21:00N 45°06' W 047°24'1818.0 1021.4
2018-May-23 20:00N 45°00' W 047°00'1717.5 1022.7
2018-May-23 19:00N 45°12' W 046°42'1817.9 1024.0
2018-May-23 18:00N 45°18' W 046°18'2120.7 230 / 161025.410.8 7.1 2.8 5.0
2018-May-23 17:00N 45°30' W 045°54'1414.0 1026.6
2018-May-23 16:00N 45°36' W 045°36'2120.6 1026.2
2018-May-23 15:00N 45°48' W 045°12'1413.9 1026.1
2018-May-23 14:00N 45°54' W 044°54'1717.3 1027.0
2018-May-23 13:00N 46°06' W 044°36'1413.8 1026.8
2018-May-23 12:00N 46°12' W 044°18'2020.5 1027.0
2018-May-23 11:00N 46°24' W 043°54'1413.8 1027.0
2018-May-23 10:00N 46°30' W 043°36'1717.2 1026.2
2018-May-23 09:00N 46°42' W 043°18'1817.5 1025.4
2018-May-23 08:00N 46°48' W 042°54'1717.5 1024.9
2018-May-23 07:00N 46°54' W 042°30'1717.4 1023.0
2018-May-23 06:00N 47°00' W 042°06'1717.4 1022.1
2018-May-23 05:00N 47°06' W 041°42'1717.4 1020.7
2018-May-23 04:00N 47°12' W 041°18'1717.4 1019.9
2018-May-23 03:00N 47°18' W 040°54'1212.2 1018.4
2018-May-23 02:00N 47°18' W 040°36'1413.6 1017.4
2018-May-23 01:00N 47°24' W 040°18'1717.3 1017.3
2018-May-23 00:00N 47°30' W 039°54'1413.5 1016.4
2018-May-22 23:00N 47°36' W 039°36'1717.2 1014.9
2018-May-22 22:00N 47°42' W 039°12'1616.2 1014.5
2018-May-22 21:00N 47°42' W 038°48'1717.2 1015.0
2018-May-22 20:00N 47°48' W 038°24'1313.5 1014.2
2018-May-22 19:00N 47°54' W 038°06'1717.2 1014.5
2018-May-22 18:00N 48°00' W 037°42'1616.1 1013.6
2018-May-22 17:00N 48°00' W 037°18'1717.1 1013.5
2018-May-22 16:00N 48°06' W 036°54'1717.1 1014.1
2018-May-22 15:00N 48°12' W 036°30'1212.0 1013.8
2018-May-22 14:00N 48°12' W 036°12'1717.1 1013.5
2018-May-22 13:00N 48°18' W 035°48'1313.4 1013.0
2018-May-22 12:00N 48°24' W 035°30'1615.9 1012.6
2018-May-22 11:00N 48°24' W 035°06'1313.4 1012.3
2018-May-22 10:00N 48°30' W 034°48'1717.0 1011.5
2018-May-22 09:00N 48°36' W 034°24'1211.9 1010.8
2018-May-22 08:00N 48°36' W 034°06'1717.0 1010.7
2018-May-22 07:00N 48°42' W 033°42'1211.9 1009.9
2018-May-22 06:00N 48°42' W 033°24'1313.3 1008.5
2018-May-22 05:00N 48°48' W 033°06'8 7.9 1007.2
2018-May-22 04:00N 48°48' W 032°54'1211.9 1007.5
2018-May-22 03:00N 48°48' W 032°36'10 9.9 1006.2
2018-May-22 02:00N 48°54' W 032°24'1211.8 1006.5
2018-May-22 01:00N 48°54' W 032°06'1313.3 1007.8
2018-May-22 00:00N 49°00' W 031°48'1211.8 1009.1
2018-May-21 23:00N 49°00' W 031°30'1313.2 1010.5
2018-May-21 22:00N 49°06' W 031°12'1211.8 1012.4
2018-May-21 21:00N 49°06' W 030°54'1615.7 1014.1
2018-May-21 20:00N 49°06' W 030°30'1313.2 1014.8
2018-May-21 19:00N 49°12' W 030°12'1211.8 1016.4
2018-May-21 18:00N 49°12' W 029°54'1716.8 1017.5
2018-May-21 17:00N 49°18' W 029°30'1211.7 1018.7
2018-May-21 16:00N 49°18' W 029°12'1615.7 1020.1
2018-May-21 15:00N 49°18' W 028°48'1716.7 1020.9
2018-May-21 14:00N 49°24' W 028°24'1615.6 1021.8
2018-May-21 13:00N 49°24' W 028°00'1313.2 1022.8
2018-May-21 12:00N 49°30' W 027°42'1615.6 1023.6
2018-May-21 11:00N 49°30' W 027°18'1716.7 1023.8
2018-May-21 10:00N 49°36' W 026°54'1211.7 1024.2
2018-May-21 09:00N 49°36' W 026°36'1615.6 1024.7
2018-May-21 08:00N 49°36' W 026°12'1615.6 1025.2
2018-May-21 07:00N 49°36' W 025°48'1716.7 1025.0
2018-May-21 06:00N 49°42' W 025°24'1211.6 1024.7
2018-May-21 05:00N 49°42' W 025°06'1615.5 1024.4
2018-May-21 04:00N 49°42' W 024°42'1615.5 1024.6
2018-May-21 03:00N 49°42' W 024°18'1211.6 1024.8
2018-May-21 02:00N 49°42' W 024°00'1716.6 1024.3
2018-May-21 01:00N 49°48' W 023°36'1515.5 1023.8
2018-May-21 00:00N 49°48' W 023°12'1515.5 1023.6
2018-May-20 23:00N 49°48' W 022°48'1211.6 1023.3
2018-May-20 22:00N 49°48' W 022°30'1515.5 1023.0
2018-May-20 21:00N 49°48' W 022°06'1515.5 1022.2
2018-May-20 20:00N 49°48' W 021°42'1515.5 1021.3
2018-May-20 19:00N 49°48' W 021°18'1515.5 1021.0
2018-May-20 18:00N 49°48' W 020°54'1515.5 1021.1
2018-May-20 17:00N 49°48' W 020°30'1211.6 1019.8
2018-May-20 16:00N 49°48' W 020°12'1515.5 1021.1
2018-May-20 15:00N 49°48' W 019°48'1515.5 1020.8
2018-May-20 14:00N 49°48' W 019°24'1515.5 1020.5
2018-May-20 13:00N 49°48' W 019°00'1919.4 1019.7
2018-May-20 12:00N 49°48' W 018°30'1211.6 1019.0
2018-May-20 11:00N 49°48' W 018°12'1919.4 1018.3
2018-May-20 10:00N 49°48' W 017°42'1515.5 1017.4
2018-May-20 09:00N 49°48' W 017°18'1515.5 1015.7
2018-May-20 08:00N 49°48' W 016°54'1515.5 1014.6
2018-May-20 07:00N 49°48' W 016°30'1211.6 1014.3
2018-May-20 06:00N 49°48' W 016°12'1515.5 1013.4
2018-May-20 05:00N 49°48' W 015°48'1515.5 1013.7
2018-May-20 04:00N 49°48' W 015°24'1515.5 1013.6
2018-May-20 03:00N 49°48' W 015°00'1515.5 1014.2
2018-May-20 02:00N 49°48' W 014°36'2713.6 1014.8
2018-May-20 00:00N 49°48' W 013°54'1515.5 1016.5
2018-May-19 23:00N 49°48' W 013°30'1515.5 1016.9
2018-May-19 22:00N 49°48' W 013°06'1515.5 1017.6
2018-May-19 21:00N 49°48' W 012°42'1515.5 1018.1
2018-May-19 20:00N 49°48' W 012°18'1515.5 1018.3
2018-May-19 19:00N 49°48' W 011°54'1515.5 1019.0
2018-May-19 18:00N 49°48' W 011°30'1716.6 1019.8
2018-May-19 17:00N 49°42' W 011°06'1615.5 1020.6
2018-May-19 16:00N 49°42' W 010°42'1615.5 1021.2
2018-May-19 15:00N 49°42' W 010°18'1615.5 1022.0
2018-May-19 14:00N 49°42' W 009°54'1615.5 1022.8
2018-May-19 13:00N 49°42' W 009°30'3115.5 1023.0
2018-May-19 11:00N 49°42' W 008°42'822.7 1023.8
2018-May-19 10:39N 49°44' W 008°30'316.6
2018-May-19 10:29N 49°44' W 008°26'816.6
2018-May-19 10:01N 49°43' W 008°14'2111.9
2018-May-19 10:00N 49°42' W 008°12'714.7 1024.0
2018-May-19 09:30N 49°44' W 008°01'816.1
2018-May-19 09:00N 49°43' W 007°48'1648.0
2018-May-19 09:00N 49°42' W 007°48'815.7 1024.3
2018-May-19 08:30N 49°43' W 007°36'816.0
2018-May-19 08:00N 49°43' W 007°24'1125.3
2018-May-19 08:00N 49°42' W 007°24'816.7 1024.9
2018-May-19 07:30N 49°43' W 007°11'815.9
2018-May-19 07:00N 49°43' W 006°59'2126.7
2018-May-19 07:00N 49°42' W 007°00'1615.5 1024.6
2018-May-19 06:00N 49°42' W 006°36'1417.9 1024.4
2018-May-19 05:14N 49°44' W 006°15'416.2
2018-May-19 05:00N 49°45' W 006°10'4234.3
2018-May-19 05:00N 49°48' W 006°12'1020.5 1024.8
2018-May-19 04:31N 49°46' W 005°57'1019.3
2018-May-19 04:00N 49°48' W 005°42'1146.6 1025.0
2018-May-19 03:59N 49°47' W 005°43'817.1
2018-May-19 03:30N 49°48' W 005°31'917.7
2018-May-19 03:00N 49°49' W 005°17'166.4
2018-May-19 03:00N 49°48' W 005°18'1119.1 1025.3
2018-May-19 02:27N 49°49' W 005°02'714.8
2018-May-19 02:00N 49°50' W 004°52'3712.9
2018-May-19 02:00N 49°48' W 004°54'919.0 1025.5
2018-May-19 01:30N 49°51' W 004°41'714.5
2018-May-19 01:01N 49°52' W 004°30'2105.8
2018-May-19 01:00N 49°54' W 004°30'715.4 1025.7
2018-May-19 00:30N 49°53' W 004°18'714.1
2018-May-19 00:00N 49°54' W 004°07'12945.1
2018-May-19 00:00N 49°54' W 004°06'612.1 1025.9
2018-May-18 23:30N 49°55' W 003°57'713.2
2018-May-18 23:00N 49°56' W 003°47'2183.4
2018-May-18 23:00N 49°54' W 003°48'815.6 1025.7
2018-May-18 22:30N 49°57' W 003°37'612.2
2018-May-18 22:00N 49°58' W 003°28'3283.8
2018-May-18 22:00N 50°00' W 003°24'4 7.5 1025.4
2018-May-18 21:30N 49°59' W 003°19'611.5
2018-May-18 21:01N 49°60' W 003°10'611.5
2018-May-18 20:30N 50°01' W 003°01'611.7
2018-May-18 20:01N 50°02' W 002°52'2144.5
2018-May-18 20:00N 50°00' W 002°54'816.2 1025.3
2018-May-18 19:30N 50°04' W 002°43'612.7
2018-May-18 19:00N 50°05' W 002°33'2206.8
2018-May-18 19:00N 50°06' W 002°30'4 9.0 1025.3
2018-May-18 18:30N 50°06' W 002°23'714.4
2018-May-18 18:00N 50°08' W 002°12'2137.8
2018-May-18 18:00N 50°06' W 002°12'817.3 1026.0
2018-May-18 17:30N 50°10' W 002°01'816.2
2018-May-18 17:00N 50°13' W 001°48'162.4
2018-May-18 17:00N 50°12' W 001°48'816.7 1026.2
2018-May-18 16:30N 50°15' W 001°36'816.7
2018-May-18 16:00N 50°16' W 001°23'297.6
2018-May-18 16:00N 50°18' W 001°24'917.8 1026.4
2018-May-18 15:30N 50°19' W 001°10'816.7
2018-May-18 15:00N 50°21' W 000°58'4249.2
2018-May-18 15:00N 50°18' W 000°54'714.4 1024.2
2018-May-18 14:31N 50°23' W 000°46'714.5
2018-May-18 14:00N 50°25' W 000°35'158.1
2018-May-18 14:00N 50°24' W 000°36'816.0 1024.1
2018-May-18 13:30N 50°27' W 000°25'713.4
2018-May-18 13:00N 50°28' W 000°14'2139.7
2018-May-18 13:00N 50°30' W 000°12'5 9.6 1024.3
2018-May-18 12:30N 50°30' W 000°05'612.2
2018-May-18 12:00N 50°31' E 000°05'2108.1
2018-May-18 12:00N 50°30' E 000°06'611.4 1024.5
2018-May-18 11:30N 50°33' E 000°14'611.2
2018-May-18 11:00N 50°34' E 000°22'2143.2
2018-May-18 11:00N 50°36' E 000°24'4 8.5 1024.7
2018-May-18 10:30N 50°36' E 000°31'611.6
2018-May-18 10:00N 50°38' E 000°39'3339.5
2018-May-18 10:00N 50°36' E 000°42'912.8 1025.3
2018-May-18 09:18N 50°43' E 000°51'413.9
2018-May-18 09:00N 50°45' E 000°56'3209.7
2018-May-18 09:00N 50°48' E 000°54'815.7 1025.5
2018-May-18 08:28N 50°50' E 001°07'817.6
2018-May-18 08:00N 50°54' E 001°18'1 8.3 1025.5
2018-May-18 07:55N 50°55' E 001°18'716.0
2018-May-18 07:30N 50°59' E 001°25'815.3
2018-May-18 07:00N 51°05' E 001°34'2133.0
2018-May-18 07:00N 51°06' E 001°36'511.0 1025.5
2018-May-18 06:31N 51°10' E 001°42'713.6
2018-May-18 06:00N 51°15' E 001°49'3186.6
2018-May-18 06:00N 51°18' E 001°48'5 9.5 1024.9
2018-May-18 05:30N 51°20' E 001°54'611.6
2018-May-18 05:00N 51°25' E 002°00'154.7
2018-May-18 05:00N 51°24' E 002°00'613.0 1024.1
2018-May-18 04:30N 51°23' E 002°10'612.1
2018-May-18 04:00N 51°21' E 002°19'3208.4
2018-May-18 04:00N 51°24' E 002°18'613.4 1023.8
2018-May-18 03:30N 51°23' E 002°28'611.4
2018-May-18 03:00N 51°23' E 002°37'177.8
2018-May-18 03:00N 51°24' E 002°36'613.3 1023.6
2018-May-18 02:30N 51°22' E 002°46'714.0
2018-May-18 02:00N 51°23' E 002°57'2143.1
2018-May-18 02:00N 51°24' E 003°00'5 9.8 1023.6
2018-May-18 01:30N 51°24' E 003°08'713.1
2018-May-18 01:00N 51°25' E 003°18'136.0
2018-May-18 01:00N 51°24' E 003°18'714.6 1023.6
2018-May-18 00:30N 51°25' E 003°29'510.8
2018-May-18 00:00N 51°26' E 003°38'3170.3
2018-May-18 00:00N 51°24' E 003°36'4 8.9 1023.8
2018-May-17 23:30N 51°23' E 003°43'612.5
2018-May-17 23:00N 51°21' E 003°52'3209.8
2018-May-17 23:00N 51°24' E 003°54'4 8.4 1024.0
2018-May-17 22:30N 51°26' E 003°59'713.2
2018-May-17 22:00N 51°22' E 004°08'2139.3
2018-May-17 22:00N 51°24' E 004°06'713.4 1024.0
2018-May-17 21:30N 51°21' E 004°15'0 0.5
2018-May-17 21:00N 51°21' E 004°16'3213.5
2018-May-17 21:00N 51°24' E 004°18'3 6.7 1023.7
2018-May-17 20:30N 51°21' E 004°16'0 0.0
2018-May-17 20:00N 51°21' E 004°16'3199.0
2018-May-17 20:00N 51°24' E 004°18'3 6.7 1023.6
2018-May-17 19:31N 51°21' E 004°16'0 0.0
2018-May-17 19:00N 51°21' E 004°16'3978.7
2018-May-17 19:00N 51°24' E 004°18'3 6.8 1023.0
2018-May-17 18:31N 51°21' E 004°16'0 0.0
2018-May-17 18:00N 51°21' E 004°16'3841.6
2018-May-17 18:00N 51°24' E 004°18'3 6.7 1022.5
2018-May-17 17:31N 51°21' E 004°16'0 0.0
2018-May-17 17:01N 51°21' E 004°16'3195.8
2018-May-17 17:00N 51°24' E 004°18'3 6.8 1022.4
2018-May-17 16:31N 51°21' E 004°16'0 0.0
2018-May-17 16:01N 51°21' E 004°16'3195.3
2018-May-17 16:00N 51°24' E 004°18'3 6.6 1022.3
2018-May-17 15:30N 51°21' E 004°16'0 0.0
2018-May-17 15:00N 51°21' E 004°16'3210.3
2018-May-17 15:00N 51°24' E 004°18'3 6.7 1022.5
2018-May-17 14:31N 51°21' E 004°16'0 0.0
2018-May-17 14:00N 51°21' E 004°16'3470.0
2018-May-17 14:00N 51°24' E 004°18'3 6.7 1022.8
2018-May-17 13:30N 51°21' E 004°16'0 0.0
2018-May-17 13:01N 51°21' E 004°16'3195.8
2018-May-17 13:00N 51°24' E 004°18'3 5.7 1023.1
2018-May-17 12:25N 51°21' E 004°16'0 0.0
2018-May-17 12:00N 51°21' E 004°16'3255.3
2018-May-17 12:00N 51°24' E 004°18'3 6.8 1022.9
2018-May-17 11:30N 51°21' E 004°16'2 3.9
2018-May-17 11:00N 51°22' E 004°13'2135.7
2018-May-17 11:00N 51°24' E 004°12'4 7.3 1023.5
2018-May-17 10:30N 51°22' E 004°07'510.6
2018-May-17 10:00N 51°26' E 004°01'2123.7
2018-May-17 10:00N 51°24' E 004°00'4 8.1 1024.0
2018-May-17 09:30N 51°22' E 003°55'511.0
2018-May-17 09:00N 51°22' E 003°46'3180.5
2018-May-17 09:00N 51°24' E 003°48'611.8 1023.9
2018-May-17 08:31N 51°26' E 003°40'5 9.9
2018-May-17 08:01N 51°25' E 003°32'2107.5
2018-May-17 08:00N 51°24' E 003°30'612.7 1024.2
2018-May-17 07:30N 51°24' E 003°20'714.3
2018-May-17 07:00N 51°24' E 003°09'2121.7
2018-May-17 07:00N 51°24' E 003°06'510.3 1024.5
2018-May-17 06:30N 51°26' E 002°59'918.3
2018-May-17 06:00N 51°33' E 003°08'3194.4
2018-May-17 06:00N 51°36' E 003°06'714.3 1024.2
2018-May-17 05:30N 51°42' E 003°13'4 8.3
2018-May-17 05:00N 51°46' E 003°15'3509.0
2018-May-17 05:00N 51°48' E 003°18'1 2.1 1023.6
2018-May-17 04:29N 51°49' E 003°17'714.4
2018-May-17 04:01N 51°56' E 003°18'295.5
2018-May-17 04:00N 51°54' E 003°18'917.6 1023.6
2018-May-17 03:30N 52°02' E 003°23'714.7
2018-May-17 03:00N 52°03' E 003°35'3207.0
2018-May-17 03:00N 52°06' E 003°36'714.7 1022.8
2018-May-17 02:30N 52°03' E 003°47'510.6
2018-May-17 02:00N 52°06' E 003°54'612.6 1022.6
2018-May-17 01:30N 52°01' E 003°60'5 9.3
2018-May-17 01:00N 51°58' E 004°05'2159.0
2018-May-17 01:00N 52°00' E 004°06'3 6.5 1023.1
2018-May-17 00:28N 51°57' E 004°02'3 6.1
2018-May-17 00:00N 52°00' E 004°00'3160.5 1022.9
2018-May-16 23:58N 51°57' E 004°02'0 0.0
2018-May-16 23:28N 51°57' E 004°02'3 6.1
2018-May-16 23:00N 52°00' E 004°00'3156.1 1023.1
2018-May-16 22:58N 51°57' E 004°02'0 0.0
2018-May-16 22:28N 51°57' E 004°02'3 6.1
2018-May-16 22:00N 52°00' E 004°00'3151.6 1023.0
2018-May-16 21:58N 51°57' E 004°02'0 0.0
2018-May-16 21:28N 51°57' E 004°02'3 6.1
2018-May-16 21:00N 52°00' E 004°00'3149.9 1022.5
2018-May-16 20:58N 51°57' E 004°02'0 0.0
2018-May-16 20:28N 51°57' E 004°02'0 0.0
2018-May-16 19:58N 51°57' E 004°02'0 0.0
2018-May-16 19:28N 51°57' E 004°02'3 6.1
2018-May-16 19:00N 52°00' E 004°00'3141.0 1021.2
2018-May-16 18:58N 51°57' E 004°02'0 0.0
2018-May-16 18:28N 51°57' E 004°02'3 6.2
2018-May-16 18:00N 52°00' E 004°00'3139.7 1020.9
2018-May-16 17:58N 51°57' E 004°02'0 0.0
2018-May-16 17:28N 51°57' E 004°02'3 6.2
2018-May-16 17:00N 52°00' E 004°00'3136.1 1020.3
2018-May-16 16:58N 51°57' E 004°02'0 0.0
2018-May-16 16:28N 51°57' E 004°02'3 6.2
2018-May-16 16:00N 52°00' E 004°00'3130.8 1020.2
2018-May-16 15:58N 51°57' E 004°02'0 0.0
2018-May-16 15:28N 51°57' E 004°02'3 6.2
2018-May-16 15:00N 52°00' E 004°00'3127.6 1020.0
2018-May-16 14:58N 51°57' E 004°02'0 0.0
2018-May-16 14:28N 51°57' E 004°02'3 6.2
2018-May-16 14:00N 52°00' E 004°00'3126.3 1019.9
2018-May-16 13:58N 51°57' E 004°02'0 0.1
2018-May-16 13:28N 51°57' E 004°02'3 6.1
2018-May-16 13:00N 52°00' E 004°00'3124.6 1019.5
2018-May-16 12:58N 51°57' E 004°02'0 0.0
2018-May-16 12:28N 51°57' E 004°02'3 6.2
2018-May-16 12:00N 52°00' E 004°00'3120.4 1019.3
2018-May-16 11:58N 51°57' E 004°02'0 0.0
2018-May-16 11:28N 51°57' E 004°02'3 6.2
2018-May-16 11:00N 52°00' E 004°00'3117.3 1020.8
2018-May-16 10:58N 51°57' E 004°02'0 0.0
2018-May-16 10:28N 51°57' E 004°02'3 6.2
2018-May-16 10:00N 52°00' E 004°00'3116.7 1018.5
2018-May-16 09:58N 51°57' E 004°02'0 0.0
2018-May-16 09:28N 51°57' E 004°02'3 6.2
2018-May-16 09:00N 52°00' E 004°00'3114.0 1018.2
2018-May-16 08:58N 51°57' E 004°02'0 0.0
2018-May-16 08:28N 51°57' E 004°02'3 6.2
2018-May-16 08:00N 52°00' E 004°00'3111.7 1017.8
2018-May-16 07:58N 51°57' E 004°02'0 0.0
2018-May-16 07:28N 51°57' E 004°02'3 6.3
2018-May-16 07:00N 52°00' E 004°00'3111.5 1017.6
2018-May-16 06:58N 51°57' E 004°02'0 0.0
2018-May-16 06:28N 51°57' E 004°02'3 6.2
2018-May-16 06:00N 52°00' E 004°00'3108.2 1017.0
2018-May-16 05:58N 51°57' E 004°02'0 0.0
2018-May-16 05:28N 51°57' E 004°02'0 0.0
2018-May-16 05:00N 51°57' E 004°02'0 0.1
2018-May-16 04:30N 51°57' E 004°02'2 3.2
2018-May-16 04:00N 51°58' E 004°05'2147.1
2018-May-16 04:00N 52°00' E 004°06'2 5.1 1016.0
2018-May-16 03:30N 51°59' E 004°02'510.6
2018-May-16 03:00N 52°01' E 003°54'153.5
2018-May-16 03:00N 52°00' E 003°54'611.5 1015.6
2018-May-16 02:30N 52°03' E 003°47'4 8.3
2018-May-16 02:00N 52°08' E 003°46'2114.1
2018-May-16 02:00N 52°06' E 003°48'612.7 1016.5
2018-May-16 01:30N 52°12' E 003°46'5 9.5
2018-May-16 01:00N 52°17' E 003°47'190.1
2018-May-16 01:00N 52°18' E 003°48'4 7.8 1016.4
2018-May-16 00:30N 52°22' E 003°48'510.7
2018-May-16 00:00N 52°27' E 003°50'3196.2
2018-May-16 00:00N 52°30' E 003°48'3 6.6 1016.8
2018-May-15 23:30N 52°32' E 003°51'611.3
2018-May-15 23:00N 52°38' E 003°53'2130.4
2018-May-15 23:00N 52°36' E 003°54'816.5 1017.0
2018-May-15 22:30N 52°44' E 003°55'713.1
2018-May-15 22:00N 52°50' E 003°57'4253.2
2018-May-15 22:00N 52°54' E 004°00'3 5.5 1017.4
2018-May-15 21:30N 52°57' E 004°00'713.5
2018-May-15 21:00N 53°01' E 004°08'2157.5
2018-May-15 21:00N 53°00' E 004°12'612.5 1017.2
2018-May-15 20:30N 53°06' E 004°16'612.1
2018-May-15 20:00N 53°10' E 004°24'2149.5
2018-May-15 20:00N 53°12' E 004°24'4 7.6 1016.9
2018-May-15 19:30N 53°15' E 004°28'3 6.7
2018-May-15 19:00N 53°18' E 004°30'3700.1 1016.4
2018-May-15 18:59N 53°20' E 004°32'511.0
2018-May-15 18:30N 53°25' E 004°36'510.2
2018-May-15 18:00N 53°29' E 004°41'168.4
2018-May-15 18:00N 53°30' E 004°42'4 9.1 1015.9
2018-May-15 17:30N 53°31' E 004°49'510.5
2018-May-15 17:00N 53°33' E 004°57'3211.2
2018-May-15 17:00N 53°36' E 005°00'4 7.2 1016.0
2018-May-15 16:30N 53°35' E 005°06'611.2
2018-May-15 16:00N 53°37' E 005°14'2148.1
2018-May-15 16:00N 53°36' E 005°18'510.1 1016.4
2018-May-15 15:30N 53°39' E 005°24'612.8
2018-May-15 15:00N 53°42' E 005°34'175.2
2018-May-15 15:00N 53°42' E 005°36'510.9 1016.9
2018-May-15 14:30N 53°44' E 005°44'612.7
2018-May-15 14:00N 53°47' E 005°54'157.3
2018-May-15 14:00N 53°48' E 005°54'3 5.9 1017.2
2018-May-15 13:30N 53°49' E 005°59'510.8
2018-May-15 13:00N 53°49' E 006°08'190.7
2018-May-15 13:00N 53°48' E 006°06'815.5 1017.5
2018-May-15 12:30N 53°50' E 006°18'612.6
2018-May-15 12:00N 53°52' E 006°29'3196.1
2018-May-15 12:00N 53°54' E 006°30'611.4 1017.6
2018-May-15 11:26N 53°52' E 006°41'510.7
2018-May-15 11:00N 53°54' E 006°48'1184.2 1017.6
2018-May-15 10:59N 53°53' E 006°49'611.6
2018-May-15 10:30N 53°54' E 006°59'611.3
2018-May-15 10:00N 53°56' E 007°08'2415.1
2018-May-15 10:00N 53°54' E 007°06'714.6 1017.6
2018-May-15 09:30N 53°57' E 007°17'510.5
2018-May-15 09:00N 53°58' E 007°26'3326.0
2018-May-15 09:00N 54°00' E 007°24'611.3 1017.5
2018-May-15 08:29N 53°59' E 007°33'5 9.8
2018-May-15 08:00N 53°57' E 007°41'3344.0
2018-May-15 08:00N 54°00' E 007°42'817.0 1017.5
2018-May-15 07:30N 53°53' E 007°49'611.7
2018-May-15 07:00N 53°51' E 007°58'3172.0
2018-May-15 07:00N 53°54' E 008°00'816.0 1017.3
2018-May-15 06:30N 53°48' E 008°08'714.8
2018-May-15 06:00N 53°43' E 008°17'167.1
2018-May-15 06:00N 53°42' E 008°18'714.3 1017.1
2018-May-15 05:30N 53°38' E 008°27'2 4.7
2018-May-15 05:00N 53°36' E 008°30'127.3 1016.6
2018-May-15 04:57N 53°36' E 008°31'0 0.0
2018-May-15 04:30N 53°36' E 008°31'0 0.0
2018-May-15 04:00N 53°36' E 008°31'160.8
2018-May-15 04:00N 53°36' E 008°30'1 1.9 1016.3
2018-May-15 03:30N 53°36' E 008°31'0 0.0
2018-May-15 03:00N 53°36' E 008°31'160.9
2018-May-15 03:00N 53°36' E 008°30'1 1.9 1016.3
2018-May-15 02:30N 53°36' E 008°31'0 0.0
2018-May-15 02:00N 53°36' E 008°31'163.0
2018-May-15 02:00N 53°36' E 008°30'1 1.9 1016.3
2018-May-15 01:30N 53°36' E 008°31'0 0.0
2018-May-15 01:00N 53°36' E 008°31'165.7
2018-May-15 01:00N 53°36' E 008°30'1 1.9 1016.3
2018-May-15 00:30N 53°36' E 008°31'0 0.0
2018-May-15 00:00N 53°36' E 008°31'168.3
2018-May-15 00:00N 53°36' E 008°30'1 1.9 1015.9
2018-May-14 23:30N 53°36' E 008°31'0 0.0
2018-May-14 23:00N 53°36' E 008°31'169.8
2018-May-14 23:00N 53°36' E 008°30'1 1.9 1015.9
2018-May-14 22:30N 53°36' E 008°31'0 0.0
2018-May-14 22:00N 53°36' E 008°31'173.0
2018-May-14 22:00N 53°36' E 008°30'1 1.9 1015.6
2018-May-14 21:30N 53°36' E 008°31'0 0.0
2018-May-14 21:00N 53°36' E 008°31'174.6
2018-May-14 21:00N 53°36' E 008°30'1 1.7 1015.2
2018-May-14 20:27N 53°36' E 008°31'0 0.0
2018-May-14 20:00N 53°35' E 008°31'177.7
2018-May-14 20:00N 53°36' E 008°30'1 1.9 1014.9
2018-May-14 19:30N 53°35' E 008°31'0 0.0
2018-May-14 19:00N 53°35' E 008°31'181.9
2018-May-14 19:00N 53°36' E 008°30'1 1.9 1014.2
2018-May-14 18:30N 53°35' E 008°31'0 0.0
2018-May-14 18:00N 53°35' E 008°31'185.6
2018-May-14 18:00N 53°36' E 008°30'1 1.9 1013.8
2018-May-14 17:30N 53°36' E 008°31'0 0.0
2018-May-14 17:00N 53°36' E 008°31'187.2
2018-May-14 17:00N 53°36' E 008°30'1 1.9 1013.3
2018-May-14 16:30N 53°35' E 008°31'0 0.1
2018-May-14 16:00N 53°35' E 008°31'192.7
2018-May-14 16:00N 53°36' E 008°30'1 1.9 1013.1
2018-May-14 15:30N 53°35' E 008°31'0 0.0
2018-May-14 15:00N 53°35' E 008°31'1100.8
2018-May-14 15:00N 53°36' E 008°30'1 2.0 1013.1
2018-May-14 14:30N 53°35' E 008°31'0 0.0
2018-May-14 14:00N 53°35' E 008°31'1100.5
2018-May-14 14:00N 53°36' E 008°30'1 1.9 1013.0
2018-May-14 13:30N 53°35' E 008°31'0 0.0
2018-May-14 13:00N 53°35' E 008°31'1114.4
2018-May-14 13:00N 53°36' E 008°30'1 1.9 1013.1
2018-May-14 12:30N 53°35' E 008°31'1 1.9
2018-May-14 12:00N 53°36' E 008°30'110.3 1013.1
2018-May-14 11:54N 53°35' E 008°31'0 0.0
2018-May-14 11:30N 53°35' E 008°31'0 0.0
2018-May-14 11:00N 53°35' E 008°31'1126.5
2018-May-14 11:00N 53°36' E 008°30'1 1.9 1013.3
2018-May-14 10:30N 53°36' E 008°31'0 0.0
2018-May-14 10:00N 53°35' E 008°31'1126.7
2018-May-14 10:00N 53°36' E 008°30'1 1.9 1013.3
2018-May-14 09:30N 53°35' E 008°31'0 0.0
2018-May-14 09:00N 53°35' E 008°31'1136.3
2018-May-14 09:00N 53°36' E 008°30'1 1.9 1013.3
2018-May-14 08:30N 53°35' E 008°31'0 0.0
2018-May-14 08:00N 53°35' E 008°31'1155.4
2018-May-14 08:00N 53°36' E 008°30'1 1.9 1013.4
2018-May-14 07:30N 53°35' E 008°31'0 0.0
2018-May-14 07:00N 53°35' E 008°31'1170.5
2018-May-14 07:00N 53°36' E 008°30'   1013.4
Track history (hours):
 
Tides and Currents Weather Stations Pressure Air Temp Water Temp Dewpoint Dewpoint Depression Visibility Wind Speed Wind Dir Waves Ship Positions

Maersk Palermo

Last reported at 2018-May-24 07:00 UTC. Time now 2018-May-24 08:13 UTC.
Position N 45°36' W 050°48'.

Length 210 m; beam 32 m.

Type: Ship (hazmat cat B). MMSI: 244118000.

Barometer 996.6 mb

Date/timePositionNaut miles runAvg speedWind from/ knotsBaromVisibWave heightAir tempDewpointWater temp
2018-May-24 07:00N 45°36' W 050°48'1414.0 996.6
2018-May-24 06:00N 45°30' W 050°30'1312.6 997.9
2018-May-24 05:00N 45°30' W 050°12'1414.0 1002.2
2018-May-24 04:00N 45°24' W 049°54'1312.6 1006.7
2018-May-24 03:00N 45°24' W 049°36'1414.0 1008.5
2018-May-24 02:00N 45°18' W 049°18'1312.7 1012.8
2018-May-24 01:00N 45°18' W 049°00'1312.7 1014.9
2018-May-24 00:00N 45°18' W 048°42'1817.9 1016.8
2018-May-23 23:00N 45°12' W 048°18'2121.1 1018.4
2018-May-23 22:00N 45°12' W 047°48'1818.0 1020.1
2018-May-23 21:00N 45°06' W 047°24'1818.0 1021.4
2018-May-23 20:00N 45°00' W 047°00'1717.5 1022.7
2018-May-23 19:00N 45°12' W 046°42'1817.9 1024.0
2018-May-23 18:00N 45°18' W 046°18'2120.7 230 / 161025.410.8 7.1 2.8 5.0
2018-May-23 17:00N 45°30' W 045°54'1414.0 1026.6
2018-May-23 16:00N 45°36' W 045°36'2120.6 1026.2
2018-May-23 15:00N 45°48' W 045°12'1413.9 1026.1
2018-May-23 14:00N 45°54' W 044°54'1717.3 1027.0
2018-May-23 13:00N 46°06' W 044°36'1413.8 1026.8
2018-May-23 12:00N 46°12' W 044°18'2020.5 1027.0
2018-May-23 11:00N 46°24' W 043°54'1413.8 1027.0
2018-May-23 10:00N 46°30' W 043°36'1717.2 1026.2
2018-May-23 09:00N 46°42' W 043°18'1817.5 1025.4
2018-May-23 08:00N 46°48' W 042°54'1717.5 1024.9
2018-May-23 07:00N 46°54' W 042°30'1717.4 1023.0
2018-May-23 06:00N 47°00' W 042°06'1717.4 1022.1
2018-May-23 05:00N 47°06' W 041°42'1717.4 1020.7
2018-May-23 04:00N 47°12' W 041°18'1717.4 1019.9
2018-May-23 03:00N 47°18' W 040°54'1212.2 1018.4
2018-May-23 02:00N 47°18' W 040°36'1413.6 1017.4
2018-May-23 01:00N 47°24' W 040°18'1717.3 1017.3
2018-May-23 00:00N 47°30' W 039°54'1413.5 1016.4
2018-May-22 23:00N 47°36' W 039°36'1717.2 1014.9
2018-May-22 22:00N 47°42' W 039°12'1616.2 1014.5
2018-May-22 21:00N 47°42' W 038°48'1717.2 1015.0
2018-May-22 20:00N 47°48' W 038°24'1313.5 1014.2
2018-May-22 19:00N 47°54' W 038°06'1717.2 1014.5
2018-May-22 18:00N 48°00' W 037°42'1616.1 1013.6
2018-May-22 17:00N 48°00' W 037°18'1717.1 1013.5
2018-May-22 16:00N 48°06' W 036°54'1717.1 1014.1
2018-May-22 15:00N 48°12' W 036°30'1212.0 1013.8
2018-May-22 14:00N 48°12' W 036°12'1717.1 1013.5
2018-May-22 13:00N 48°18' W 035°48'1313.4 1013.0
2018-May-22 12:00N 48°24' W 035°30'1615.9 1012.6
2018-May-22 11:00N 48°24' W 035°06'1313.4 1012.3
2018-May-22 10:00N 48°30' W 034°48'1717.0 1011.5
2018-May-22 09:00N 48°36' W 034°24'1211.9 1010.8
2018-May-22 08:00N 48°36' W 034°06'1717.0 1010.7
2018-May-22 07:00N 48°42' W 033°42'1211.9 1009.9
2018-May-22 06:00N 48°42' W 033°24'1313.3 1008.5
2018-May-22 05:00N 48°48' W 033°06'8 7.9 1007.2
2018-May-22 04:00N 48°48' W 032°54'1211.9 1007.5
2018-May-22 03:00N 48°48' W 032°36'10 9.9 1006.2
2018-May-22 02:00N 48°54' W 032°24'1211.8 1006.5
2018-May-22 01:00N 48°54' W 032°06'1313.3 1007.8
2018-May-22 00:00N 49°00' W 031°48'1211.8 1009.1
2018-May-21 23:00N 49°00' W 031°30'1313.2 1010.5
2018-May-21 22:00N 49°06' W 031°12'1211.8 1012.4
2018-May-21 21:00N 49°06' W 030°54'1615.7 1014.1
2018-May-21 20:00N 49°06' W 030°30'1313.2 1014.8
2018-May-21 19:00N 49°12' W 030°12'1211.8 1016.4
2018-May-21 18:00N 49°12' W 029°54'1716.8 1017.5
2018-May-21 17:00N 49°18' W 029°30'1211.7 1018.7
2018-May-21 16:00N 49°18' W 029°12'1615.7 1020.1
2018-May-21 15:00N 49°18' W 028°48'1716.7 1020.9
2018-May-21 14:00N 49°24' W 028°24'1615.6 1021.8
2018-May-21 13:00N 49°24' W 028°00'1313.2 1022.8
2018-May-21 12:00N 49°30' W 027°42'1615.6 1023.6
2018-May-21 11:00N 49°30' W 027°18'1716.7 1023.8
2018-May-21 10:00N 49°36' W 026°54'1211.7 1024.2
2018-May-21 09:00N 49°36' W 026°36'1615.6 1024.7
2018-May-21 08:00N 49°36' W 026°12'1615.6 1025.2
2018-May-21 07:00N 49°36' W 025°48'1716.7 1025.0
2018-May-21 06:00N 49°42' W 025°24'1211.6 1024.7
2018-May-21 05:00N 49°42' W 025°06'1615.5 1024.4
2018-May-21 04:00N 49°42' W 024°42'1615.5 1024.6
2018-May-21 03:00N 49°42' W 024°18'1211.6 1024.8
2018-May-21 02:00N 49°42' W 024°00'1716.6 1024.3
2018-May-21 01:00N 49°48' W 023°36'1515.5 1023.8
2018-May-21 00:00N 49°48' W 023°12'1515.5 1023.6
2018-May-20 23:00N 49°48' W 022°48'1211.6 1023.3
2018-May-20 22:00N 49°48' W 022°30'1515.5 1023.0
2018-May-20 21:00N 49°48' W 022°06'1515.5 1022.2
2018-May-20 20:00N 49°48' W 021°42'1515.5 1021.3
2018-May-20 19:00N 49°48' W 021°18'1515.5 1021.0
2018-May-20 18:00N 49°48' W 020°54'1515.5 1021.1
2018-May-20 17:00N 49°48' W 020°30'1211.6 1019.8
2018-May-20 16:00N 49°48' W 020°12'1515.5 1021.1
2018-May-20 15:00N 49°48' W 019°48'1515.5 1020.8
2018-May-20 14:00N 49°48' W 019°24'1515.5 1020.5
2018-May-20 13:00N 49°48' W 019°00'1919.4 1019.7
2018-May-20 12:00N 49°48' W 018°30'1211.6 1019.0
2018-May-20 11:00N 49°48' W 018°12'1919.4 1018.3
2018-May-20 10:00N 49°48' W 017°42'1515.5 1017.4
2018-May-20 09:00N 49°48' W 017°18'1515.5 1015.7
2018-May-20 08:00N 49°48' W 016°54'1515.5 1014.6
2018-May-20 07:00N 49°48' W 016°30'1211.6 1014.3
2018-May-20 06:00N 49°48' W 016°12'1515.5 1013.4
2018-May-20 05:00N 49°48' W 015°48'1515.5 1013.7
2018-May-20 04:00N 49°48' W 015°24'1515.5 1013.6
2018-May-20 03:00N 49°48' W 015°00'1515.5 1014.2
2018-May-20 02:00N 49°48' W 014°36'2713.6 1014.8
2018-May-20 00:00N 49°48' W 013°54'1515.5 1016.5
2018-May-19 23:00N 49°48' W 013°30'1515.5 1016.9
2018-May-19 22:00N 49°48' W 013°06'1515.5 1017.6
2018-May-19 21:00N 49°48' W 012°42'1515.5 1018.1
2018-May-19 20:00N 49°48' W 012°18'1515.5 1018.3
2018-May-19 19:00N 49°48' W 011°54'1515.5 1019.0
2018-May-19 18:00N 49°48' W 011°30'1716.6 1019.8
2018-May-19 17:00N 49°42' W 011°06'1615.5 1020.6
2018-May-19 16:00N 49°42' W 010°42'1615.5 1021.2
2018-May-19 15:00N 49°42' W 010°18'1615.5 1022.0
2018-May-19 14:00N 49°42' W 009°54'1615.5 1022.8
2018-May-19 13:00N 49°42' W 009°30'3115.5 1023.0
2018-May-19 11:00N 49°42' W 008°42'822.7 1023.8
2018-May-19 10:39N 49°44' W 008°30'316.6
2018-May-19 10:29N 49°44' W 008°26'816.6
2018-May-19 10:01N 49°43' W 008°14'2111.9
2018-May-19 10:00N 49°42' W 008°12'714.7 1024.0
2018-May-19 09:30N 49°44' W 008°01'816.1
2018-May-19 09:00N 49°43' W 007°48'1648.0
2018-May-19 09:00N 49°42' W 007°48'815.7 1024.3
2018-May-19 08:30N 49°43' W 007°36'816.0
2018-May-19 08:00N 49°43' W 007°24'1125.3
2018-May-19 08:00N 49°42' W 007°24'816.7 1024.9
2018-May-19 07:30N 49°43' W 007°11'815.9
2018-May-19 07:00N 49°43' W 006°59'2126.7
2018-May-19 07:00N 49°42' W 007°00'1615.5 1024.6
2018-May-19 06:00N 49°42' W 006°36'1417.9 1024.4
2018-May-19 05:14N 49°44' W 006°15'416.2
2018-May-19 05:00N 49°45' W 006°10'4234.3
2018-May-19 05:00N 49°48' W 006°12'1020.5 1024.8
2018-May-19 04:31N 49°46' W 005°57'1019.3
2018-May-19 04:00N 49°48' W 005°42'1146.6 1025.0
2018-May-19 03:59N 49°47' W 005°43'817.1
2018-May-19 03:30N 49°48' W 005°31'917.7
2018-May-19 03:00N 49°49' W 005°17'166.4
2018-May-19 03:00N 49°48' W 005°18'1119.1 1025.3
2018-May-19 02:27N 49°49' W 005°02'714.8
2018-May-19 02:00N 49°50' W 004°52'3712.9
2018-May-19 02:00N 49°48' W 004°54'919.0 1025.5
2018-May-19 01:30N 49°51' W 004°41'714.5
2018-May-19 01:01N 49°52' W 004°30'2105.8
2018-May-19 01:00N 49°54' W 004°30'715.4 1025.7
2018-May-19 00:30N 49°53' W 004°18'714.1
2018-May-19 00:00N 49°54' W 004°07'12945.1
2018-May-19 00:00N 49°54' W 004°06'612.1 1025.9
2018-May-18 23:30N 49°55' W 003°57'713.2
2018-May-18 23:00N 49°56' W 003°47'2183.4
2018-May-18 23:00N 49°54' W 003°48'815.6 1025.7
2018-May-18 22:30N 49°57' W 003°37'612.2
2018-May-18 22:00N 49°58' W 003°28'3283.8
2018-May-18 22:00N 50°00' W 003°24'4 7.5 1025.4
2018-May-18 21:30N 49°59' W 003°19'611.5
2018-May-18 21:01N 49°60' W 003°10'611.5
2018-May-18 20:30N 50°01' W 003°01'611.7
2018-May-18 20:01N 50°02' W 002°52'2144.5
2018-May-18 20:00N 50°00' W 002°54'816.2 1025.3
2018-May-18 19:30N 50°04' W 002°43'612.7
2018-May-18 19:00N 50°05' W 002°33'2206.8
2018-May-18 19:00N 50°06' W 002°30'4 9.0 1025.3
2018-May-18 18:30N 50°06' W 002°23'714.4
2018-May-18 18:00N 50°08' W 002°12'2137.8
2018-May-18 18:00N 50°06' W 002°12'817.3 1026.0
2018-May-18 17:30N 50°10' W 002°01'816.2
2018-May-18 17:00N 50°13' W 001°48'162.4
2018-May-18 17:00N 50°12' W 001°48'816.7 1026.2
2018-May-18 16:30N 50°15' W 001°36'816.7
2018-May-18 16:00N 50°16' W 001°23'297.6
2018-May-18 16:00N 50°18' W 001°24'917.8 1026.4
2018-May-18 15:30N 50°19' W 001°10'816.7
2018-May-18 15:00N 50°21' W 000°58'4249.2
2018-May-18 15:00N 50°18' W 000°54'714.4 1024.2
2018-May-18 14:31N 50°23' W 000°46'714.5
2018-May-18 14:00N 50°25' W 000°35'158.1
2018-May-18 14:00N 50°24' W 000°36'816.0 1024.1
2018-May-18 13:30N 50°27' W 000°25'713.4
2018-May-18 13:00N 50°28' W 000°14'2139.7
2018-May-18 13:00N 50°30' W 000°12'5 9.6 1024.3
2018-May-18 12:30N 50°30' W 000°05'612.2
2018-May-18 12:00N 50°31' E 000°05'2108.1
2018-May-18 12:00N 50°30' E 000°06'611.4 1024.5
2018-May-18 11:30N 50°33' E 000°14'611.2
2018-May-18 11:00N 50°34' E 000°22'2143.2
2018-May-18 11:00N 50°36' E 000°24'4 8.5 1024.7
2018-May-18 10:30N 50°36' E 000°31'611.6
2018-May-18 10:00N 50°38' E 000°39'3339.5
2018-May-18 10:00N 50°36' E 000°42'912.8 1025.3
2018-May-18 09:18N 50°43' E 000°51'413.9
2018-May-18 09:00N 50°45' E 000°56'3209.7
2018-May-18 09:00N 50°48' E 000°54'815.7 1025.5
2018-May-18 08:28N 50°50' E 001°07'817.6
2018-May-18 08:00N 50°54' E 001°18'1 8.3 1025.5
2018-May-18 07:55N 50°55' E 001°18'716.0
2018-May-18 07:30N 50°59' E 001°25'815.3
2018-May-18 07:00N 51°05' E 001°34'2133.0
2018-May-18 07:00N 51°06' E 001°36'511.0 1025.5
2018-May-18 06:31N 51°10' E 001°42'713.6
2018-May-18 06:00N 51°15' E 001°49'3186.6
2018-May-18 06:00N 51°18' E 001°48'5 9.5 1024.9
2018-May-18 05:30N 51°20' E 001°54'611.6
2018-May-18 05:00N 51°25' E 002°00'154.7
2018-May-18 05:00N 51°24' E 002°00'613.0 1024.1
2018-May-18 04:30N 51°23' E 002°10'612.1
2018-May-18 04:00N 51°21' E 002°19'3208.4
2018-May-18 04:00N 51°24' E 002°18'613.4 1023.8
2018-May-18 03:30N 51°23' E 002°28'611.4
2018-May-18 03:00N 51°23' E 002°37'177.8
2018-May-18 03:00N 51°24' E 002°36'613.3 1023.6
2018-May-18 02:30N 51°22' E 002°46'714.0
2018-May-18 02:00N 51°23' E 002°57'2143.1
2018-May-18 02:00N 51°24' E 003°00'5 9.8 1023.6
2018-May-18 01:30N 51°24' E 003°08'713.1
2018-May-18 01:00N 51°25' E 003°18'136.0
2018-May-18 01:00N 51°24' E 003°18'714.6 1023.6
2018-May-18 00:30N 51°25' E 003°29'510.8
2018-May-18 00:00N 51°26' E 003°38'3170.3
2018-May-18 00:00N 51°24' E 003°36'4 8.9 1023.8
2018-May-17 23:30N 51°23' E 003°43'612.5
2018-May-17 23:00N 51°21' E 003°52'3209.8
2018-May-17 23:00N 51°24' E 003°54'4 8.4 1024.0
2018-May-17 22:30N 51°26' E 003°59'713.2
2018-May-17 22:00N 51°22' E 004°08'2139.3
2018-May-17 22:00N 51°24' E 004°06'713.4 1024.0
2018-May-17 21:30N 51°21' E 004°15'0 0.5
2018-May-17 21:00N 51°21' E 004°16'3213.5
2018-May-17 21:00N 51°24' E 004°18'3 6.7 1023.7
2018-May-17 20:30N 51°21' E 004°16'0 0.0
2018-May-17 20:00N 51°21' E 004°16'3199.0
2018-May-17 20:00N 51°24' E 004°18'3 6.7 1023.6
2018-May-17 19:31N 51°21' E 004°16'0 0.0
2018-May-17 19:00N 51°21' E 004°16'3978.7
2018-May-17 19:00N 51°24' E 004°18'3 6.8 1023.0
2018-May-17 18:31N 51°21' E 004°16'0 0.0
2018-May-17 18:00N 51°21' E 004°16'3841.6
2018-May-17 18:00N 51°24' E 004°18'3 6.7 1022.5
2018-May-17 17:31N 51°21' E 004°16'0 0.0
2018-May-17 17:01N 51°21' E 004°16'3195.8
2018-May-17 17:00N 51°24' E 004°18'3 6.8 1022.4
2018-May-17 16:31N 51°21' E 004°16'0 0.0
2018-May-17 16:01N 51°21' E 004°16'3195.3
2018-May-17 16:00N 51°24' E 004°18'3 6.6 1022.3
2018-May-17 15:30N 51°21' E 004°16'0 0.0
2018-May-17 15:00N 51°21' E 004°16'3210.3
2018-May-17 15:00N 51°24' E 004°18'3 6.7 1022.5
2018-May-17 14:31N 51°21' E 004°16'0 0.0
2018-May-17 14:00N 51°21' E 004°16'3470.0
2018-May-17 14:00N 51°24' E 004°18'3 6.7 1022.8
2018-May-17 13:30N 51°21' E 004°16'0 0.0
2018-May-17 13:01N 51°21' E 004°16'3195.8
2018-May-17 13:00N 51°24' E 004°18'3 5.7 1023.1
2018-May-17 12:25N 51°21' E 004°16'0 0.0
2018-May-17 12:00N 51°21' E 004°16'3255.3
2018-May-17 12:00N 51°24' E 004°18'3 6.8 1022.9
2018-May-17 11:30N 51°21' E 004°16'2 3.9
2018-May-17 11:00N 51°22' E 004°13'2135.7
2018-May-17 11:00N 51°24' E 004°12'4 7.3 1023.5
2018-May-17 10:30N 51°22' E 004°07'510.6
2018-May-17 10:00N 51°26' E 004°01'2123.7
2018-May-17 10:00N 51°24' E 004°00'4 8.1 1024.0
2018-May-17 09:30N 51°22' E 003°55'511.0
2018-May-17 09:00N 51°22' E 003°46'3180.5
2018-May-17 09:00N 51°24' E 003°48'611.8 1023.9
2018-May-17 08:31N 51°26' E 003°40'5 9.9
2018-May-17 08:01N 51°25' E 003°32'2107.5
2018-May-17 08:00N 51°24' E 003°30'612.7 1024.2
2018-May-17 07:30N 51°24' E 003°20'714.3
2018-May-17 07:00N 51°24' E 003°09'2121.7
2018-May-17 07:00N 51°24' E 003°06'510.3 1024.5
2018-May-17 06:30N 51°26' E 002°59'918.3
2018-May-17 06:00N 51°33' E 003°08'3194.4
2018-May-17 06:00N 51°36' E 003°06'714.3 1024.2
2018-May-17 05:30N 51°42' E 003°13'4 8.3
2018-May-17 05:00N 51°46' E 003°15'3509.0
2018-May-17 05:00N 51°48' E 003°18'1 2.1 1023.6
2018-May-17 04:29N 51°49' E 003°17'714.4
2018-May-17 04:01N 51°56' E 003°18'295.5
2018-May-17 04:00N 51°54' E 003°18'917.6 1023.6
2018-May-17 03:30N 52°02' E 003°23'714.7
2018-May-17 03:00N 52°03' E 003°35'3207.0
2018-May-17 03:00N 52°06' E 003°36'714.7 1022.8
2018-May-17 02:30N 52°03' E 003°47'510.6
2018-May-17 02:00N 52°06' E 003°54'612.6 1022.6
2018-May-17 01:30N 52°01' E 003°60'5 9.3
2018-May-17 01:00N 51°58' E 004°05'2159.0
2018-May-17 01:00N 52°00' E 004°06'3 6.5 1023.1
2018-May-17 00:28N 51°57' E 004°02'3 6.1
2018-May-17 00:00N 52°00' E 004°00'3160.5 1022.9
2018-May-16 23:58N 51°57' E 004°02'0 0.0
2018-May-16 23:28N 51°57' E 004°02'3 6.1
2018-May-16 23:00N 52°00' E 004°00'3156.1 1023.1
2018-May-16 22:58N 51°57' E 004°02'0 0.0
2018-May-16 22:28N 51°57' E 004°02'3 6.1
2018-May-16 22:00N 52°00' E 004°00'3151.6 1023.0
2018-May-16 21:58N 51°57' E 004°02'0 0.0
2018-May-16 21:28N 51°57' E 004°02'3 6.1
2018-May-16 21:00N 52°00' E 004°00'3149.9 1022.5
2018-May-16 20:58N 51°57' E 004°02'0 0.0
2018-May-16 20:28N 51°57' E 004°02'0 0.0
2018-May-16 19:58N 51°57' E 004°02'0 0.0
2018-May-16 19:28N 51°57' E 004°02'3 6.1
2018-May-16 19:00N 52°00' E 004°00'3141.0 1021.2
2018-May-16 18:58N 51°57' E 004°02'0 0.0
2018-May-16 18:28N 51°57' E 004°02'3 6.2
2018-May-16 18:00N 52°00' E 004°00'3139.7 1020.9
2018-May-16 17:58N 51°57' E 004°02'0 0.0
2018-May-16 17:28N 51°57' E 004°02'3 6.2
2018-May-16 17:00N 52°00' E 004°00'3136.1 1020.3
2018-May-16 16:58N 51°57' E 004°02'0 0.0
2018-May-16 16:28N 51°57' E 004°02'3 6.2
2018-May-16 16:00N 52°00' E 004°00'3130.8 1020.2
2018-May-16 15:58N 51°57' E 004°02'0 0.0
2018-May-16 15:28N 51°57' E 004°02'3 6.2
2018-May-16 15:00N 52°00' E 004°00'3127.6 1020.0
2018-May-16 14:58N 51°57' E 004°02'0 0.0
2018-May-16 14:28N 51°57' E 004°02'3 6.2
2018-May-16 14:00N 52°00' E 004°00'3126.3 1019.9
2018-May-16 13:58N 51°57' E 004°02'0 0.1
2018-May-16 13:28N 51°57' E 004°02'3 6.1
2018-May-16 13:00N 52°00' E 004°00'3124.6 1019.5
2018-May-16 12:58N 51°57' E 004°02'0 0.0
2018-May-16 12:28N 51°57' E 004°02'3 6.2
2018-May-16 12:00N 52°00' E 004°00'3120.4 1019.3
2018-May-16 11:58N 51°57' E 004°02'0 0.0
2018-May-16 11:28N 51°57' E 004°02'3 6.2
2018-May-16 11:00N 52°00' E 004°00'3117.3 1020.8
2018-May-16 10:58N 51°57' E 004°02'0 0.0
2018-May-16 10:28N 51°57' E 004°02'3 6.2
2018-May-16 10:00N 52°00' E 004°00'3116.7 1018.5
2018-May-16 09:58N 51°57' E 004°02'0 0.0
2018-May-16 09:28N 51°57' E 004°02'3 6.2
2018-May-16 09:00N 52°00' E 004°00'3114.0 1018.2
2018-May-16 08:58N 51°57' E 004°02'0 0.0
2018-May-16 08:28N 51°57' E 004°02'3 6.2
2018-May-16 08:00N 52°00' E 004°00'3111.7 1017.8
2018-May-16 07:58N 51°57' E 004°02'0 0.0
2018-May-16 07:28N 51°57' E 004°02'3 6.3
2018-May-16 07:00N 52°00' E 004°00'3111.5 1017.6
2018-May-16 06:58N 51°57' E 004°02'0 0.0
2018-May-16 06:28N 51°57' E 004°02'3 6.2
2018-May-16 06:00N 52°00' E 004°00'3108.2 1017.0
2018-May-16 05:58N 51°57' E 004°02'0 0.0
2018-May-16 05:28N 51°57' E 004°02'0 0.0
2018-May-16 05:00N 51°57' E 004°02'0 0.1
2018-May-16 04:30N 51°57' E 004°02'2 3.2
2018-May-16 04:00N 51°58' E 004°05'2147.1
2018-May-16 04:00N 52°00' E 004°06'2 5.1 1016.0
2018-May-16 03:30N 51°59' E 004°02'510.6
2018-May-16 03:00N 52°01' E 003°54'153.5
2018-May-16 03:00N 52°00' E 003°54'611.5 1015.6
2018-May-16 02:30N 52°03' E 003°47'4 8.3
2018-May-16 02:00N 52°08' E 003°46'2114.1
2018-May-16 02:00N 52°06' E 003°48'612.7 1016.5
2018-May-16 01:30N 52°12' E 003°46'5 9.5
2018-May-16 01:00N 52°17' E 003°47'190.1
2018-May-16 01:00N 52°18' E 003°48'4 7.8 1016.4
2018-May-16 00:30N 52°22' E 003°48'510.7
2018-May-16 00:00N 52°27' E 003°50'3196.2
2018-May-16 00:00N 52°30' E 003°48'3 6.6 1016.8
2018-May-15 23:30N 52°32' E 003°51'611.3
2018-May-15 23:00N 52°38' E 003°53'2130.4
2018-May-15 23:00N 52°36' E 003°54'816.5 1017.0
2018-May-15 22:30N 52°44' E 003°55'713.1
2018-May-15 22:00N 52°50' E 003°57'4253.2
2018-May-15 22:00N 52°54' E 004°00'3 5.5 1017.4
2018-May-15 21:30N 52°57' E 004°00'713.5
2018-May-15 21:00N 53°01' E 004°08'2157.5
2018-May-15 21:00N 53°00' E 004°12'612.5 1017.2
2018-May-15 20:30N 53°06' E 004°16'612.1
2018-May-15 20:00N 53°10' E 004°24'2149.5
2018-May-15 20:00N 53°12' E 004°24'4 7.6 1016.9
2018-May-15 19:30N 53°15' E 004°28'3 6.7
2018-May-15 19:00N 53°18' E 004°30'3700.1 1016.4
2018-May-15 18:59N 53°20' E 004°32'511.0
2018-May-15 18:30N 53°25' E 004°36'510.2
2018-May-15 18:00N 53°29' E 004°41'168.4
2018-May-15 18:00N 53°30' E 004°42'4 9.1 1015.9
2018-May-15 17:30N 53°31' E 004°49'510.5
2018-May-15 17:00N 53°33' E 004°57'3211.2
2018-May-15 17:00N 53°36' E 005°00'4 7.2 1016.0
2018-May-15 16:30N 53°35' E 005°06'611.2
2018-May-15 16:00N 53°37' E 005°14'2148.1
2018-May-15 16:00N 53°36' E 005°18'510.1 1016.4
2018-May-15 15:30N 53°39' E 005°24'612.8
2018-May-15 15:00N 53°42' E 005°34'175.2
2018-May-15 15:00N 53°42' E 005°36'510.9 1016.9
2018-May-15 14:30N 53°44' E 005°44'612.7
2018-May-15 14:00N 53°47' E 005°54'157.3
2018-May-15 14:00N 53°48' E 005°54'3 5.9 1017.2
2018-May-15 13:30N 53°49' E 005°59'510.8
2018-May-15 13:00N 53°49' E 006°08'190.7
2018-May-15 13:00N 53°48' E 006°06'815.5 1017.5
2018-May-15 12:30N 53°50' E 006°18'612.6
2018-May-15 12:00N 53°52' E 006°29'3196.1
2018-May-15 12:00N 53°54' E 006°30'611.4 1017.6
2018-May-15 11:26N 53°52' E 006°41'510.7
2018-May-15 11:00N 53°54' E 006°48'1184.2 1017.6
2018-May-15 10:59N 53°53' E 006°49'611.6
2018-May-15 10:30N 53°54' E 006°59'611.3
2018-May-15 10:00N 53°56' E 007°08'2415.1
2018-May-15 10:00N 53°54' E 007°06'714.6 1017.6
2018-May-15 09:30N 53°57' E 007°17'510.5
2018-May-15 09:00N 53°58' E 007°26'3326.0
2018-May-15 09:00N 54°00' E 007°24'611.3 1017.5
2018-May-15 08:29N 53°59' E 007°33'5 9.8
2018-May-15 08:00N 53°57' E 007°41'3344.0
2018-May-15 08:00N 54°00' E 007°42'817.0 1017.5
2018-May-15 07:30N 53°53' E 007°49'611.7
2018-May-15 07:00N 53°51' E 007°58'3172.0
2018-May-15 07:00N 53°54' E 008°00'816.0 1017.3
2018-May-15 06:30N 53°48' E 008°08'714.8
2018-May-15 06:00N 53°43' E 008°17'167.1
2018-May-15 06:00N 53°42' E 008°18'714.3 1017.1
2018-May-15 05:30N 53°38' E 008°27'2 4.7
2018-May-15 05:00N 53°36' E 008°30'127.3 1016.6
2018-May-15 04:57N 53°36' E 008°31'0 0.0
2018-May-15 04:30N 53°36' E 008°31'0 0.0
2018-May-15 04:00N 53°36' E 008°31'160.8
2018-May-15 04:00N 53°36' E 008°30'1 1.9 1016.3
2018-May-15 03:30N 53°36' E 008°31'0 0.0
2018-May-15 03:00N 53°36' E 008°31'160.9
2018-May-15 03:00N 53°36' E 008°30'1 1.9 1016.3
2018-May-15 02:30N 53°36' E 008°31'0 0.0
2018-May-15 02:00N 53°36' E 008°31'163.0
2018-May-15 02:00N 53°36' E 008°30'1 1.9 1016.3
2018-May-15 01:30N 53°36' E 008°31'0 0.0
2018-May-15 01:00N 53°36' E 008°31'165.7
2018-May-15 01:00N 53°36' E 008°30'1 1.9 1016.3
2018-May-15 00:30N 53°36' E 008°31'0 0.0
2018-May-15 00:00N 53°36' E 008°31'168.3
2018-May-15 00:00N 53°36' E 008°30'1 1.9 1015.9
2018-May-14 23:30N 53°36' E 008°31'0 0.0
2018-May-14 23:00N 53°36' E 008°31'169.8
2018-May-14 23:00N 53°36' E 008°30'1 1.9 1015.9
2018-May-14 22:30N 53°36' E 008°31'0 0.0
2018-May-14 22:00N 53°36' E 008°31'173.0
2018-May-14 22:00N 53°36' E 008°30'1 1.9 1015.6
2018-May-14 21:30N 53°36' E 008°31'0 0.0
2018-May-14 21:00N 53°36' E 008°31'174.6
2018-May-14 21:00N 53°36' E 008°30'1 1.7 1015.2
2018-May-14 20:27N 53°36' E 008°31'0 0.0
2018-May-14 20:00N 53°35' E 008°31'177.7
2018-May-14 20:00N 53°36' E 008°30'1 1.9 1014.9
2018-May-14 19:30N 53°35' E 008°31'0 0.0
2018-May-14 19:00N 53°35' E 008°31'181.9
2018-May-14 19:00N 53°36' E 008°30'1 1.9 1014.2
2018-May-14 18:30N 53°35' E 008°31'0 0.0
2018-May-14 18:00N 53°35' E 008°31'185.6
2018-May-14 18:00N 53°36' E 008°30'1 1.9 1013.8
2018-May-14 17:30N 53°36' E 008°31'0 0.0
2018-May-14 17:00N 53°36' E 008°31'187.2
2018-May-14 17:00N 53°36' E 008°30'1 1.9 1013.3
2018-May-14 16:30N 53°35' E 008°31'0 0.1
2018-May-14 16:00N 53°35' E 008°31'192.7
2018-May-14 16:00N 53°36' E 008°30'1 1.9 1013.1
2018-May-14 15:30N 53°35' E 008°31'0 0.0
2018-May-14 15:00N 53°35' E 008°31'1100.8
2018-May-14 15:00N 53°36' E 008°30'1 2.0 1013.1
2018-May-14 14:30N 53°35' E 008°31'0 0.0
2018-May-14 14:00N 53°35' E 008°31'1100.5
2018-May-14 14:00N 53°36' E 008°30'1 1.9 1013.0
2018-May-14 13:30N 53°35' E 008°31'0 0.0
2018-May-14 13:00N 53°35' E 008°31'1114.4
2018-May-14 13:00N 53°36' E 008°30'1 1.9 1013.1
2018-May-14 12:30N 53°35' E 008°31'1 1.9
2018-May-14 12:00N 53°36' E 008°30'110.3 1013.1
2018-May-14 11:54N 53°35' E 008°31'0 0.0
2018-May-14 11:30N 53°35' E 008°31'0 0.0
2018-May-14 11:00N 53°35' E 008°31'1126.5
2018-May-14 11:00N 53°36' E 008°30'1 1.9 1013.3
2018-May-14 10:30N 53°36' E 008°31'0 0.0
2018-May-14 10:00N 53°35' E 008°31'1126.7
2018-May-14 10:00N 53°36' E 008°30'1 1.9 1013.3
2018-May-14 09:30N 53°35' E 008°31'0 0.0
2018-May-14 09:00N 53°35' E 008°31'1136.3
2018-May-14 09:00N 53°36' E 008°30'1 1.9 1013.3
2018-May-14 08:30N 53°35' E 008°31'0 0.0
2018-May-14 08:00N 53°35' E 008°31'1155.4
2018-May-14 08:00N 53°36' E 008°30'1 1.9 1013.4
2018-May-14 07:30N 53°35' E 008°31'0 0.0
2018-May-14 07:00N 53°35' E 008°31'1170.5
2018-May-14 07:00N 53°36' E 008°30'   1013.4

Dump ship's entire track history